Time;durP1;ratioP1;P1;durP2;ratioP2;P2;SDS_P1;SDS_P2;PMS_P1;PMS_P2;Temp;Humidity;BMP_temperature;BMP_pressure;BME280_temperature;BME280_humidity;BME280_pressure;Samples;Min_cycle;Max_cycle;Signal;HPM_P1;HPM_P2
2022/10/22 00:02:24;;;;;;;18.67;13.55;;;14.30;99.90;;;;;;5062180;28;20183;-72
2022/10/22 00:04:50;;;;;;;19.42;14.20;;;14.30;99.90;;;;;;5057932;28;20219;-72
2022/10/22 00:07:19;;;;;;;18.90;14.70;;;14.30;99.90;;;;;;5062273;28;20210;-72
2022/10/22 00:09:46;;;;;;;20.85;14.95;;;14.30;99.90;;;;;;5059275;28;20211;-72
2022/10/22 00:12:12;;;;;;;19.90;13.63;;;14.30;99.90;;;;;;5048217;28;20581;-72
2022/10/22 00:14:38;;;;;;;16.85;13.13;;;14.30;99.90;;;;;;5061418;28;20186;-72
2022/10/22 00:17:04;;;;;;;18.65;13.30;;;14.30;99.90;;;;;;5058281;28;20180;-72
2022/10/22 00:19:29;;;;;;;18.65;14.00;;;14.40;99.90;;;;;;5060627;28;20271;-72
2022/10/22 00:21:55;;;;;;;17.90;13.38;;;14.30;99.90;;;;;;5043196;28;20207;-72
2022/10/22 00:24:20;;;;;;;17.65;13.07;;;14.40;99.90;;;;;;5059392;28;20740;-72
2022/10/22 00:26:46;;;;;;;16.25;12.93;;;14.40;99.90;;;;;;5059477;28;20179;-72
2022/10/22 00:29:12;;;;;;;17.92;13.45;;;14.40;99.90;;;;;;5058261;28;20928;-72
2022/10/22 00:31:37;;;;;;;19.05;13.32;;;14.40;99.90;;;;;;5039536;28;20685;-72
2022/10/22 00:34:03;;;;;;;16.40;13.35;;;14.40;99.90;;;;;;5059147;28;20624;-73
2022/10/22 00:36:28;;;;;;;18.85;13.63;;;14.40;99.90;;;;;;5064571;28;20693;-72
2022/10/22 00:38:54;;;;;;;16.63;13.00;;;14.40;99.90;;;;;;5043179;28;20221;-72
2022/10/22 00:41:20;;;;;;;18.23;13.00;;;14.40;99.90;;;;;;5041480;28;20190;-71
2022/10/22 00:44:03;;;;;;;16.48;12.88;;;14.40;99.90;;;;;;5059482;28;20211;-72
2022/10/22 00:46:29;;;;;;;17.92;13.10;;;14.40;99.90;;;;;;5058828;28;20627;-72
2022/10/22 00:48:57;;;;;;;16.98;12.63;;;14.40;99.90;;;;;;5043449;28;20237;-72
2022/10/22 00:51:27;;;;;;;17.35;13.27;;;14.40;99.90;;;;;;5061973;28;20210;-72
2022/10/22 00:53:56;;;;;;;17.00;13.27;;;14.40;99.90;;;;;;5061511;28;20309;-70
2022/10/22 00:56:23;;;;;;;18.27;13.00;;;14.30;99.90;;;;;;5047749;28;20608;-70
2022/10/22 00:58:55;;;;;;;18.92;13.73;;;14.30;99.90;;;;;;5063461;28;20238;-70
2022/10/22 01:01:25;;;;;;;17.15;12.68;;;14.20;99.90;;;;;;5046688;23;20718;-68
2022/10/22 01:03:51;;;;;;;21.15;13.40;;;14.30;99.90;;;;;;5015429;28;20596;-68
2022/10/22 01:06:26;;;;;;;18.92;14.55;;;14.30;99.90;;;;;;5024451;28;20582;-68
2022/10/22 01:09:16;;;;;;;17.77;12.70;;;14.30;99.90;;;;;;5012765;28;20175;-68
2022/10/22 01:11:47;;;;;;;17.98;13.80;;;14.20;99.90;;;;;;5031706;28;20200;-69
2022/10/22 01:14:24;;;;;;;18.17;13.57;;;14.30;99.90;;;;;;5029441;28;20193;-69
2022/10/22 01:17:21;;;;;;;18.77;13.85;;;14.30;99.90;;;;;;5015308;28;20232;-69
2022/10/22 01:20:19;;;;;;;18.90;14.02;;;14.30;99.90;;;;;;5031746;28;20254;-69
2022/10/22 01:22:59;;;;;;;23.40;15.05;;;14.30;99.90;;;;;;5000327;28;20239;-69
2022/10/22 01:25:38;;;;;;;19.30;13.88;;;14.30;99.90;;;;;;5031337;28;20215;-69
2022/10/22 01:28:22;;;;;;;18.30;15.13;;;14.30;99.90;;;;;;5030728;28;20212;-69
2022/10/22 01:30:52;;;;;;;21.95;14.43;;;14.20;99.90;;;;;;5024769;28;20220;-69
2022/10/22 01:33:19;;;;;;;20.20;14.38;;;14.20;99.90;;;;;;5022519;28;20222;-68
2022/10/22 01:35:45;;;;;;;22.92;14.65;;;14.20;99.90;;;;;;5026651;28;20658;-69
2022/10/22 01:38:15;;;;;;;18.42;14.52;;;14.20;99.90;;;;;;5014356;28;20208;-69
2022/10/22 01:40:42;;;;;;;21.95;13.98;;;14.20;99.90;;;;;;5010627;28;20216;-69
2022/10/22 01:43:09;;;;;;;17.75;14.38;;;14.10;99.90;;;;;;5032299;28;20216;-69
2022/10/22 01:45:43;;;;;;;17.08;14.48;;;14.20;99.90;;;;;;5032557;28;20220;-69
2022/10/22 01:48:15;;;;;;;16.73;12.90;;;14.10;99.90;;;;;;5028608;28;20218;-68
2022/10/22 01:51:19;;;;;;;20.23;13.77;;;14.10;99.90;;;;;;5024894;28;20200;-69
2022/10/22 01:54:06;;;;;;;19.27;13.73;;;14.20;99.90;;;;;;5027102;28;20172;-69
2022/10/22 01:57:05;;;;;;;19.52;13.43;;;14.20;99.90;;;;;;5030969;28;20203;-69
2022/10/22 02:00:00;;;;;;;17.17;12.93;;;14.10;99.90;;;;;;5031655;28;20227;-69
2022/10/22 02:02:42;;;;;;;16.75;13.25;;;14.10;99.90;;;;;;5023468;28;20205;-68
2022/10/22 02:05:18;;;;;;;18.90;13.30;;;14.10;99.90;;;;;;5028664;28;20306;-69
2022/10/22 02:07:52;;;;;;;17.75;13.27;;;14.10;99.90;;;;;;5012912;28;20212;-69
2022/10/22 02:10:19;;;;;;;18.92;14.18;;;14.10;99.90;;;;;;5030450;28;20208;-69
2022/10/22 02:12:52;;;;;;;19.38;14.23;;;14.10;99.90;;;;;;5028091;28;20598;-69
2022/10/22 02:15:19;;;;;;;18.58;13.68;;;14.10;99.90;;;;;;5029111;28;20208;-69
2022/10/22 02:17:46;;;;;;;19.60;13.40;;;14.10;99.90;;;;;;5032022;28;20184;-69
2022/10/22 02:20:18;;;;;;;19.00;14.40;;;14.10;99.90;;;;;;5031851;28;20275;-69
2022/10/22 02:22:44;;;;;;;17.08;12.63;;;14.10;99.90;;;;;;5027908;28;20299;-69
2022/10/22 02:25:10;;;;;;;19.20;13.80;;;14.10;99.90;;;;;;5031491;28;20311;-69
2022/10/22 02:28:14;;;;;;;21.50;14.38;;;14.10;99.90;;;;;;5031715;28;20212;-69
2022/10/22 02:30:44;;;;;;;16.80;12.70;;;14.00;99.90;;;;;;5031384;28;20216;-69
2022/10/22 02:33:13;;;;;;;18.92;13.90;;;14.00;99.90;;;;;;5013649;28;20307;-69
2022/10/22 02:35:40;;;;;;;17.50;13.05;;;14.00;99.90;;;;;;5030388;28;20192;-69
2022/10/22 02:38:07;;;;;;;16.60;13.00;;;14.00;99.90;;;;;;5026355;28;20323;-70
2022/10/22 02:40:32;;;;;;;19.15;13.57;;;14.00;99.90;;;;;;5031067;28;20692;-69
2022/10/22 02:42:58;;;;;;;18.45;13.45;;;14.00;99.90;;;;;;5031322;28;20212;-69
2022/10/22 02:45:24;;;;;;;16.52;12.85;;;14.00;99.90;;;;;;5031304;28;20234;-70
2022/10/22 02:47:51;;;;;;;18.27;14.35;;;14.00;99.90;;;;;;5027352;28;20275;-69
2022/10/22 02:50:16;;;;;;;20.80;13.48;;;14.00;99.90;;;;;;5013247;28;20200;-69
2022/10/22 02:52:42;;;;;;;23.83;13.77;;;13.90;99.90;;;;;;5031148;28;20227;-69
2022/10/22 02:55:08;;;;;;;18.15;13.23;;;13.90;99.90;;;;;;5024332;28;20205;-70
2022/10/22 02:57:34;;;;;;;20.30;13.70;;;13.90;99.90;;;;;;5020032;28;20268;-69
2022/10/22 02:59:59;;;;;;;17.55;13.27;;;13.90;99.90;;;;;;5004292;28;20220;-69
2022/10/22 03:02:25;;;;;;;22.77;14.23;;;13.90;99.90;;;;;;5019742;28;20674;-69
2022/10/22 03:04:50;;;;;;;21.10;13.90;;;13.90;99.90;;;;;;5026911;28;20444;-69
2022/10/22 03:07:16;;;;;;;19.67;14.07;;;13.90;99.90;;;;;;5009912;28;20216;-68
2022/10/22 03:09:42;;;;;;;19.83;13.23;;;13.90;99.90;;;;;;5024358;28;20722;-69
2022/10/22 03:12:07;;;;;;;15.82;12.90;;;13.90;99.90;;;;;;5022779;28;20713;-69
2022/10/22 03:14:34;;;;;;;19.27;13.95;;;13.90;99.90;;;;;;5023813;28;20195;-69
2022/10/22 03:16:59;;;;;;;18.05;13.23;;;13.90;99.90;;;;;;5022577;28;20215;-69
2022/10/22 03:19:25;;;;;;;19.00;14.32;;;13.90;99.90;;;;;;5018627;28;20213;-70
2022/10/22 03:21:59;;;;;;;18.33;13.70;;;14.00;99.90;;;;;;5026650;28;20221;-69
2022/10/22 03:24:30;;;;;;;16.08;12.82;;;14.00;99.90;;;;;;5022234;28;20236;-69
2022/10/22 03:26:56;;;;;;;23.15;13.43;;;14.00;99.90;;;;;;5019346;28;20679;-68
2022/10/22 03:29:24;;;;;;;16.80;12.85;;;14.00;99.90;;;;;;5022975;28;20241;-69
2022/10/22 03:31:51;;;;;;;16.75;13.00;;;13.90;99.90;;;;;;5004538;28;20731;-69
2022/10/22 03:34:16;;;;;;;15.52;12.30;;;13.90;99.90;;;;;;5002561;28;20204;-69
2022/10/22 03:36:42;;;;;;;19.95;14.05;;;13.90;99.90;;;;;;5020852;28;20687;-69
2022/10/22 03:39:10;;;;;;;17.42;13.05;;;13.90;99.90;;;;;;5026160;28;20297;-68
2022/10/22 03:41:36;;;;;;;18.73;14.15;;;13.90;99.90;;;;;;5008125;28;20279;-69
2022/10/22 03:44:03;;;;;;;19.48;13.75;;;13.90;99.90;;;;;;5022124;28;20295;-68
2022/10/22 03:46:28;;;;;;;17.45;13.45;;;13.90;99.90;;;;;;5004272;28;20224;-68
2022/10/22 03:48:54;;;;;;;18.65;13.75;;;13.90;99.90;;;;;;5019594;28;20597;-68
2022/10/22 03:51:20;;;;;;;18.67;13.55;;;13.90;99.90;;;;;;5008018;28;20216;-68
2022/10/22 03:53:45;;;;;;;19.55;13.43;;;13.90;99.90;;;;;;5004409;28;20279;-68
2022/10/22 03:56:11;;;;;;;17.85;12.98;;;13.90;99.90;;;;;;5020803;28;20184;-69
2022/10/22 03:58:39;;;;;;;17.95;13.15;;;13.90;99.90;;;;;;5008207;28;20240;-68
2022/10/22 04:01:10;;;;;;;16.88;12.48;;;13.90;99.90;;;;;;5020689;28;20231;-69
2022/10/22 04:03:35;;;;;;;17.63;12.40;;;13.90;99.90;;;;;;5023542;28;22205;-69
2022/10/22 04:06:06;;;;;;;18.63;14.40;;;13.90;99.90;;;;;;5021968;28;20349;-69
2022/10/22 04:08:32;;;;;;;18.37;12.17;;;13.90;99.90;;;;;;5018569;28;20805;-69
2022/10/22 04:10:57;;;;;;;16.13;12.45;;;13.90;99.90;;;;;;5021314;28;20212;-69
2022/10/22 04:13:23;;;;;;;16.38;12.95;;;14.00;99.90;;;;;;5025442;28;20216;-69
2022/10/22 04:15:50;;;;;;;18.00;12.80;;;14.00;99.90;;;;;;5019269;28;20347;-69
2022/10/22 04:18:17;;;;;;;17.70;13.00;;;14.00;99.90;;;;;;5019214;28;20302;-68
2022/10/22 04:20:43;;;;;;;20.40;13.82;;;13.90;99.90;;;;;;5003371;28;20197;-68
2022/10/22 04:23:08;;;;;;;18.77;12.38;;;14.00;99.90;;;;;;5021744;28;20176;-68
2022/10/22 04:25:34;;;;;;;17.73;12.60;;;14.00;99.90;;;;;;5016389;28;20216;-69
2022/10/22 04:27:59;;;;;;;18.95;13.82;;;13.90;99.90;;;;;;5025099;28;20273;-69
2022/10/22 04:30:25;;;;;;;17.88;12.90;;;13.90;99.90;;;;;;5029079;28;20417;-68
2022/10/22 04:32:50;;;;;;;15.20;12.05;;;13.90;99.90;;;;;;5023432;28;20191;-69
2022/10/22 04:35:16;;;;;;;16.58;12.77;;;13.90;99.90;;;;;;5024040;28;20251;-68
2022/10/22 04:37:41;;;;;;;16.90;12.65;;;13.90;99.90;;;;;;5024736;28;20219;-69
2022/10/22 04:40:07;;;;;;;17.58;13.43;;;13.90;99.90;;;;;;5029688;28;20303;-68
2022/10/22 04:42:33;;;;;;;19.70;14.15;;;13.90;99.90;;;;;;5025616;28;20259;-68
2022/10/22 04:44:58;;;;;;;17.20;13.00;;;13.90;99.90;;;;;;5024655;28;20687;-68
2022/10/22 04:47:24;;;;;;;17.63;13.27;;;13.90;99.90;;;;;;5029513;28;20191;-69
2022/10/22 04:49:49;;;;;;;18.48;12.93;;;13.90;99.90;;;;;;5022630;28;20299;-68
2022/10/22 04:52:15;;;;;;;15.98;12.73;;;13.90;99.90;;;;;;5005399;28;20691;-67
2022/10/22 04:54:40;;;;;;;16.52;11.63;;;13.80;99.90;;;;;;5027027;28;20391;-69
2022/10/22 04:57:06;;;;;;;17.60;13.20;;;13.80;99.90;;;;;;5014207;28;20239;-68
2022/10/22 04:59:31;;;;;;;18.40;12.63;;;13.80;99.90;;;;;;5021707;28;20707;-69
2022/10/22 05:01:57;;;;;;;18.42;12.48;;;13.70;99.90;;;;;;5024658;28;20242;-68
2022/10/22 05:04:23;;;;;;;15.50;11.93;;;13.80;99.90;;;;;;5007143;28;20299;-69
2022/10/22 05:06:48;;;;;;;15.50;12.15;;;13.70;99.90;;;;;;5029606;28;20213;-69
2022/10/22 05:09:16;;;;;;;17.67;13.35;;;13.70;99.90;;;;;;5014875;28;20219;-66
2022/10/22 05:11:45;;;;;;;18.92;12.95;;;13.70;99.90;;;;;;5015056;28;20204;-69
2022/10/22 05:14:10;;;;;;;16.53;12.20;;;13.70;99.90;;;;;;5029266;28;20173;-68
2022/10/22 05:16:39;;;;;;;17.88;12.30;;;13.70;99.90;;;;;;5032968;28;20563;-67
2022/10/22 05:19:06;;;;;;;15.95;12.27;;;13.70;99.90;;;;;;5032665;28;20303;-69
2022/10/22 05:21:32;;;;;;;18.75;12.18;;;13.70;99.90;;;;;;5028720;28;20228;-68
2022/10/22 05:24:01;;;;;;;20.05;13.20;;;13.70;99.90;;;;;;5032448;28;20224;-68
2022/10/22 05:26:27;;;;;;;16.30;12.50;;;13.70;99.90;;;;;;5015253;28;20187;-68
2022/10/22 05:28:53;;;;;;;18.77;13.37;;;13.70;99.90;;;;;;5032530;28;20594;-67
2022/10/22 05:31:19;;;;;;;18.08;12.77;;;13.70;99.90;;;;;;5028746;28;20226;-67
2022/10/22 05:33:45;;;;;;;16.00;12.00;;;13.70;99.90;;;;;;5032500;28;20690;-68
2022/10/22 05:36:14;;;;;;;16.88;12.70;;;13.70;99.90;;;;;;5030942;28;20295;-69
2022/10/22 05:38:40;;;;;;;16.45;12.35;;;13.70;99.90;;;;;;5029494;28;20227;-68
2022/10/22 05:41:08;;;;;;;19.13;13.32;;;13.70;99.90;;;;;;5031789;28;20240;-68
2022/10/22 05:43:34;;;;;;;17.77;13.15;;;13.70;99.90;;;;;;5024708;28;20632;-68
2022/10/22 05:46:05;;;;;;;17.83;12.23;;;13.70;99.90;;;;;;5032407;28;20212;-69
2022/10/22 05:48:31;;;;;;;18.38;11.90;;;13.70;99.90;;;;;;5028423;28;20209;-69
2022/10/22 05:50:56;;;;;;;16.27;11.70;;;13.70;99.90;;;;;;5031761;28;20216;-68
2022/10/22 05:53:22;;;;;;;15.77;11.70;;;13.70;99.90;;;;;;5032784;28;20203;-68
2022/10/22 05:55:47;;;;;;;18.92;12.90;;;13.60;99.90;;;;;;5014290;28;20212;-69
2022/10/22 05:58:13;;;;;;;19.88;13.05;;;13.60;99.90;;;;;;5032127;28;20223;-69
2022/10/22 06:00:39;;;;;;;15.05;11.57;;;13.50;99.90;;;;;;5031769;28;20224;-69
2022/10/22 06:03:05;;;;;;;18.25;12.07;;;13.50;99.90;;;;;;5032133;28;20208;-69
2022/10/22 06:05:35;;;;;;;16.43;11.80;;;13.60;99.90;;;;;;5010531;28;20204;-69
2022/10/22 06:08:01;;;;;;;18.25;11.70;;;13.60;99.90;;;;;;5032167;28;20212;-68
2022/10/22 06:10:27;;;;;;;19.83;13.20;;;13.60;99.90;;;;;;5009773;28;20208;-70
2022/10/22 06:12:52;;;;;;;16.77;12.43;;;13.60;99.90;;;;;;5028163;28;20267;-69
2022/10/22 06:15:19;;;;;;;17.45;11.95;;;13.60;99.90;;;;;;5031920;28;20215;-69
2022/10/22 06:17:45;;;;;;;16.15;12.27;;;13.60;99.90;;;;;;5014183;28;20177;-70
2022/10/22 06:20:12;;;;;;;18.08;13.23;;;13.60;99.90;;;;;;5031897;28;20584;-70
2022/10/22 06:22:38;;;;;;;17.90;13.45;;;13.60;99.90;;;;;;5027969;28;20212;-70
2022/10/22 06:25:04;;;;;;;21.35;13.45;;;13.70;99.90;;;;;;5031468;28;20216;-70
2022/10/22 06:27:30;;;;;;;16.73;12.77;;;13.70;99.90;;;;;;5006365;28;20374;-70
2022/10/22 06:29:55;;;;;;;17.65;13.07;;;13.70;99.90;;;;;;5027380;28;20220;-69
2022/10/22 06:32:21;;;;;;;16.65;12.60;;;13.80;99.90;;;;;;5032229;28;20196;-70
2022/10/22 06:34:47;;;;;;;17.80;12.38;;;13.90;99.90;;;;;;5012743;28;20208;-70
2022/10/22 06:37:14;;;;;;;18.05;12.52;;;14.00;99.90;;;;;;5030941;28;20222;-70
2022/10/22 06:39:39;;;;;;;20.05;13.20;;;14.00;99.90;;;;;;5027128;28;20216;-70
2022/10/22 06:42:05;;;;;;;17.58;11.88;;;14.00;99.90;;;;;;5031415;28;20265;-70
2022/10/22 06:44:30;;;;;;;19.02;11.80;;;14.10;99.90;;;;;;5031939;28;20254;-70
2022/10/22 06:46:56;;;;;;;16.55;12.40;;;14.10;99.90;;;;;;5027466;28;20213;-70
2022/10/22 06:49:21;;;;;;;16.63;11.60;;;14.10;99.90;;;;;;5030392;28;20698;-70
2022/10/22 06:51:51;;;;;;;14.73;11.60;;;14.10;99.90;;;;;;5031256;28;20244;-69
2022/10/22 06:54:18;;;;;;;16.05;11.02;;;14.10;99.90;;;;;;5030012;28;20208;-69
2022/10/22 06:56:43;;;;;;;15.82;11.18;;;14.10;99.90;;;;;;5027342;28;20616;-70
2022/10/22 06:59:09;;;;;;;17.40;12.40;;;14.10;99.90;;;;;;5031536;28;20204;-69
2022/10/22 07:01:35;;;;;;;17.40;11.98;;;14.10;99.90;;;;;;5053285;23;20242;-73
2022/10/22 07:04:01;;;;;;;17.95;12.05;;;14.10;99.90;;;;;;5046231;28;20262;-73
2022/10/22 07:06:28;;;;;;;16.95;11.95;;;14.20;99.90;;;;;;5049513;28;20234;-72
2022/10/22 07:08:55;;;;;;;15.65;11.63;;;14.20;99.90;;;;;;5050604;28;20222;-73
2022/10/22 07:11:29;;;;;;;16.25;11.10;;;14.30;99.90;;;;;;5043490;28;20677;-72
2022/10/22 07:13:57;;;;;;;14.75;11.45;;;14.30;99.90;;;;;;5043751;28;20211;-72
2022/10/22 07:16:23;;;;;;;14.55;10.82;;;14.30;99.90;;;;;;5032844;28;20207;-72
2022/10/22 07:18:49;;;;;;;16.17;12.60;;;14.40;99.90;;;;;;5049503;28;20804;-72
2022/10/22 07:21:17;;;;;;;13.20;10.57;;;14.40;99.90;;;;;;5042103;28;20298;-73
2022/10/22 07:23:43;;;;;;;15.07;11.32;;;14.50;99.90;;;;;;5028763;28;20184;-73
2022/10/22 07:26:13;;;;;;;16.60;11.93;;;14.50;99.90;;;;;;5051154;28;20547;-72
2022/10/22 07:28:39;;;;;;;18.00;11.27;;;14.60;99.90;;;;;;5050393;28;20303;-73
2022/10/22 07:31:07;;;;;;;15.05;11.50;;;14.70;99.90;;;;;;5028234;28;20208;-72
2022/10/22 07:33:33;;;;;;;15.88;10.98;;;14.60;99.90;;;;;;5050502;28;20693;-72
2022/10/22 07:36:03;;;;;;;15.23;11.55;;;14.60;99.90;;;;;;5044724;28;20296;-72
2022/10/22 07:38:30;;;;;;;15.20;11.00;;;14.70;99.90;;;;;;5046425;28;20720;-73
2022/10/22 07:40:56;;;;;;;13.80;11.23;;;14.90;99.90;;;;;;5047595;28;20216;-73
2022/10/22 07:43:22;;;;;;;16.80;11.52;;;15.20;99.90;;;;;;5050269;28;20732;-72
2022/10/22 07:45:48;;;;;;;12.32;10.43;;;15.30;99.90;;;;;;5049982;28;20223;-73
2022/10/22 07:48:13;;;;;;;17.90;10.57;;;15.50;99.90;;;;;;5028243;28;20209;-73
2022/10/22 07:50:39;;;;;;;14.70;10.30;;;15.60;99.90;;;;;;5031752;28;20191;-73
2022/10/22 07:53:04;;;;;;;12.55;10.60;;;15.60;99.90;;;;;;5032224;28;20191;-73
2022/10/22 07:55:30;;;;;;;14.68;10.30;;;15.50;99.90;;;;;;5026444;28;20234;-72
2022/10/22 07:57:55;;;;;;;12.82;10.18;;;15.50;99.90;;;;;;5029593;28;20224;-73
2022/10/22 08:00:21;;;;;;;14.98;11.10;;;15.40;99.90;;;;;;5049739;28;20219;-72
2022/10/22 08:02:47;;;;;;;13.40;10.27;;;15.30;99.90;;;;;;5032131;28;20215;-73
2022/10/22 08:05:12;;;;;;;13.93;10.63;;;15.20;99.90;;;;;;5027858;28;20202;-72
2022/10/22 08:07:39;;;;;;;13.48;10.32;;;15.30;99.90;;;;;;5049921;28;20268;-73
2022/10/22 08:10:06;;;;;;;14.80;10.63;;;15.20;99.90;;;;;;5030341;28;20249;-72
2022/10/22 08:12:31;;;;;;;14.75;11.57;;;15.20;99.90;;;;;;5045673;28;20631;-72
2022/10/22 08:14:57;;;;;;;14.95;11.48;;;15.30;99.90;;;;;;5029744;28;20215;-73
2022/10/22 08:17:22;;;;;;;14.73;11.15;;;15.30;99.90;;;;;;5050485;28;20669;-72
2022/10/22 08:19:48;;;;;;;12.85;9.80;;;15.30;99.90;;;;;;5049575;28;20203;-72
2022/10/22 08:22:14;;;;;;;11.98;10.60;;;15.30;99.90;;;;;;5045794;28;20264;-73
2022/10/22 08:24:40;;;;;;;13.77;10.65;;;15.30;99.90;;;;;;5041799;28;20285;-72
2022/10/22 08:27:05;;;;;;;15.77;11.63;;;15.40;99.90;;;;;;5049580;28;20703;-73
2022/10/22 08:29:31;;;;;;;19.63;13.25;;;15.40;99.90;;;;;;5048306;28;20206;-72
2022/10/22 08:31:56;;;;;;;18.58;12.93;;;15.50;99.90;;;;;;5047077;28;20218;-73
2022/10/22 08:34:22;;;;;;;16.98;11.07;;;15.40;99.90;;;;;;5049721;28;20211;-72
2022/10/22 08:36:47;;;;;;;14.18;10.25;;;15.40;99.90;;;;;;5046806;28;20211;-72
2022/10/22 08:39:13;;;;;;;14.85;10.82;;;15.40;99.90;;;;;;5045291;28;20253;-73
2022/10/22 08:41:59;;;;;;;13.27;11.15;;;15.40;99.90;;;;;;5049303;28;20208;-73
2022/10/22 08:44:42;;;;;;;13.68;10.65;;;15.50;99.90;;;;;;5038528;28;20226;-72
2022/10/22 08:47:17;;;;;;;13.95;11.27;;;15.50;99.90;;;;;;5026595;28;20211;-72
2022/10/22 08:49:43;;;;;;;14.23;10.50;;;15.50;99.90;;;;;;5041252;28;20211;-71
2022/10/22 08:52:15;;;;;;;14.25;10.57;;;15.50;99.90;;;;;;5048992;28;20207;-71
2022/10/22 08:54:59;;;;;;;14.68;10.88;;;15.60;99.90;;;;;;5031402;28;20208;-71
2022/10/22 08:58:02;;;;;;;18.13;11.18;;;15.60;99.90;;;;;;5046614;28;20206;-71
2022/10/22 09:00:35;;;;;;;15.02;9.85;;;15.60;99.90;;;;;;5047908;28;20211;-72
2022/10/22 09:03:11;;;;;;;16.35;11.27;;;15.60;99.90;;;;;;5021734;28;20223;-71
2022/10/22 09:06:04;;;;;;;23.35;16.00;;;15.70;99.90;;;;;;5048661;28;20218;-71
2022/10/22 09:08:30;;;;;;;20.27;12.88;;;15.60;99.90;;;;;;5027026;28;20233;-72
2022/10/22 09:11:12;;;;;;;17.50;10.80;;;15.70;99.90;;;;;;5044734;28;20208;-71
2022/10/22 09:13:43;;;;;;;14.40;10.32;;;15.70;99.90;;;;;;5049225;28;20710;-72
2022/10/22 09:16:41;;;;;;;12.40;9.88;;;15.70;99.90;;;;;;5050489;28;20210;-72
2022/10/22 09:19:18;;;;;;;15.10;10.07;;;15.70;99.90;;;;;;5054757;28;20284;-72
2022/10/22 09:22:09;;;;;;;13.43;10.30;;;15.80;99.90;;;;;;5048014;28;20220;-72
2022/10/22 09:24:47;;;;;;;13.40;10.45;;;15.90;99.90;;;;;;5051644;28;20226;-71
2022/10/22 09:27:18;;;;;;;13.75;10.05;;;15.90;99.90;;;;;;5030897;28;20320;-71
2022/10/22 09:29:46;;;;;;;12.43;9.82;;;16.00;99.90;;;;;;5053542;28;20190;-71
2022/10/22 09:32:11;;;;;;;11.85;9.65;;;16.00;99.90;;;;;;5053167;28;20213;-72
2022/10/22 09:34:37;;;;;;;13.35;11.15;;;16.10;99.90;;;;;;5048342;28;20208;-71
2022/10/22 09:37:08;;;;;;;15.05;10.65;;;16.10;99.90;;;;;;5049593;28;20291;-72
2022/10/22 09:39:38;;;;;;;14.13;10.18;;;16.20;99.90;;;;;;5047945;28;20203;-72
2022/10/22 09:42:05;;;;;;;14.63;10.82;;;16.20;99.90;;;;;;5052046;28;20690;-72
2022/10/22 09:44:36;;;;;;;13.93;9.82;;;16.30;99.90;;;;;;5044967;28;20298;-71
2022/10/22 09:47:06;;;;;;;13.63;9.75;;;16.40;99.90;;;;;;5044545;28;20280;-72
2022/10/22 09:49:34;;;;;;;11.25;9.77;;;16.50;99.90;;;;;;5048696;28;20594;-72
2022/10/22 09:52:00;;;;;;;13.80;9.90;;;16.60;99.90;;;;;;5051071;28;20261;-71
2022/10/22 09:54:38;;;;;;;13.15;9.98;;;16.70;99.90;;;;;;5048001;28;20269;-71
2022/10/22 09:57:27;;;;;;;12.90;9.60;;;16.60;99.90;;;;;;5048047;28;20218;-71
2022/10/22 09:59:56;;;;;;;17.30;10.13;;;16.60;99.90;;;;;;5028025;28;20215;-72
2022/10/22 10:02:26;;;;;;;13.15;9.98;;;16.60;99.90;;;;;;5034318;28;20207;-72
2022/10/22 10:04:54;;;;;;;14.45;10.55;;;16.50;99.90;;;;;;5041323;28;20546;-71
2022/10/22 10:07:23;;;;;;;13.90;10.82;;;16.40;99.90;;;;;;5031211;28;20586;-71
2022/10/22 10:09:50;;;;;;;16.20;11.20;;;16.30;99.90;;;;;;5051368;28;20208;-71
2022/10/22 10:12:44;;;;;;;12.68;11.13;;;16.20;99.90;;;;;;5043557;28;20215;-71
2022/10/22 10:15:37;;;;;;;13.57;10.25;;;16.20;99.90;;;;;;5046609;28;20319;-71
2022/10/22 10:18:47;;;;;;;16.48;11.32;;;16.20;99.90;;;;;;5050765;28;20214;-71
2022/10/22 10:21:50;;;;;;;15.88;10.55;;;16.10;99.90;;;;;;4969403;28;20211;-72
2022/10/22 10:24:16;;;;;;;14.40;10.85;;;16.20;99.90;;;;;;5046324;28;20844;-70
2022/10/22 10:26:57;;;;;;;16.02;11.82;;;16.30;99.90;;;;;;5033370;28;20190;-71
2022/10/22 10:29:30;;;;;;;16.20;12.00;;;16.30;99.90;;;;;;5051099;28;20180;-71
2022/10/22 10:32:13;;;;;;;14.68;11.00;;;16.50;99.90;;;;;;5044798;28;20299;-71
2022/10/22 10:34:50;;;;;;;16.05;12.00;;;16.70;99.90;;;;;;5048267;28;20207;-71
2022/10/22 10:37:29;;;;;;;15.98;11.43;;;16.70;99.90;;;;;;5050904;28;20700;-69
2022/10/22 10:40:10;;;;;;;17.58;11.18;;;16.60;99.90;;;;;;5044190;28;20216;-71
2022/10/22 10:42:54;;;;;;;12.00;10.30;;;16.60;99.90;;;;;;5051136;28;20218;-71
2022/10/22 10:45:45;;;;;;;15.20;11.55;;;16.60;99.90;;;;;;5050105;28;20642;-72
2022/10/22 10:48:32;;;;;;;17.02;11.18;;;16.60;99.90;;;;;;5046159;28;20223;-72
2022/10/22 10:51:27;;;;;;;20.88;11.50;;;16.60;99.90;;;;;;5045294;28;20261;-72
2022/10/22 10:54:21;;;;;;;15.05;12.07;;;16.60;99.90;;;;;;5046269;28;20215;-72
2022/10/22 10:56:53;;;;;;;27.20;19.90;;;16.80;99.90;;;;;;5050249;28;20180;-72
2022/10/22 11:00:03;;;;;;;16.40;12.05;;;17.00;99.90;;;;;;5048239;28;20171;-71
2022/10/22 11:02:50;;;;;;;15.00;12.27;;;17.40;99.90;;;;;;5052576;28;20752;-72
2022/10/22 11:05:44;;;;;;;16.95;11.80;;;17.50;99.90;;;;;;5049390;28;20360;-71
2022/10/22 11:08:30;;;;;;;17.17;12.68;;;17.60;99.90;;;;;;5050355;28;20214;-72
2022/10/22 11:11:05;;;;;;;20.35;13.18;;;17.80;99.90;;;;;;5065741;28;20206;-72
2022/10/22 11:13:58;;;;;;;17.27;12.75;;;17.70;99.90;;;;;;5065755;28;20213;-71
2022/10/22 11:16:41;;;;;;;17.38;12.93;;;17.80;99.90;;;;;;5064137;28;20213;-71
2022/10/22 11:19:29;;;;;;;16.05;12.38;;;17.80;99.90;;;;;;5068816;28;20213;-72
2022/10/22 11:22:07;;;;;;;16.73;12.98;;;18.00;99.90;;;;;;5062310;28;20729;-72
2022/10/22 11:25:12;;;;;;;15.25;13.43;;;17.90;99.90;;;;;;5069723;28;20233;-71
2022/10/22 11:27:45;;;;;;;18.88;13.15;;;17.90;99.90;;;;;;5062971;28;20230;-72
2022/10/22 11:30:15;;;;;;;19.52;12.32;;;18.10;99.90;;;;;;5065082;28;20753;-72
2022/10/22 11:32:43;;;;;;;15.13;11.40;;;18.40;99.90;;;;;;5051322;28;20206;-72
2022/10/22 11:35:19;;;;;;;16.02;12.40;;;18.60;99.90;;;;;;5070073;28;20269;-72
2022/10/22 11:37:46;;;;;;;20.80;15.23;;;18.80;99.90;;;;;;5064609;28;20592;-71
2022/10/22 11:40:32;;;;;;;12.77;11.00;;;18.90;99.90;;;;;;5065237;28;20720;-72
2022/10/22 11:43:03;;;;;;;13.95;10.80;;;19.00;99.90;;;;;;5064137;28;20221;-72
2022/10/22 11:45:35;;;;;;;17.15;11.00;;;19.20;99.90;;;;;;5062419;28;20269;-72
2022/10/22 11:48:07;;;;;;;13.63;9.43;;;19.20;99.90;;;;;;5047953;28;20211;-71
2022/10/22 11:50:56;;;;;;;13.38;9.63;;;19.30;99.90;;;;;;5069696;28;20551;-73
2022/10/22 11:53:24;;;;;;;16.02;10.13;;;19.40;99.90;;;;;;5069135;28;20260;-72
2022/10/22 11:55:52;;;;;;;14.77;9.77;;;19.40;99.90;;;;;;5065910;28;20298;-71
2022/10/22 11:58:27;;;;;;;11.40;9.35;;;19.40;99.90;;;;;;5066434;28;20199;-72
2022/10/22 12:01:00;;;;;;;15.10;9.32;;;19.60;99.90;;;;;;5069313;28;20298;-69
2022/10/22 12:03:32;;;;;;;13.65;9.05;;;19.60;99.90;;;;;;5047671;28;20237;-70
2022/10/22 12:06:15;;;;;;;12.80;8.52;;;19.60;99.90;;;;;;5066112;28;20219;-70
2022/10/22 12:08:53;;;;;;;13.80;8.60;;;19.50;99.90;;;;;;5062578;28;20183;-71
2022/10/22 12:11:18;;;;;;;11.88;8.20;;;19.50;99.90;;;;;;5063616;28;20175;-71
2022/10/22 12:13:51;;;;;;;12.88;9.40;;;19.40;99.90;;;;;;5043822;28;20216;-71
2022/10/22 12:16:17;;;;;;;12.45;7.55;;;19.30;99.90;;;;;;5069131;28;20207;-70
2022/10/22 12:18:44;;;;;;;12.10;7.90;;;19.20;99.90;;;;;;5069638;28;20693;-70
2022/10/22 12:21:14;;;;;;;10.40;7.10;;;19.10;99.90;;;;;;5069067;28;20222;-71
2022/10/22 12:23:41;;;;;;;9.80;7.10;;;19.10;99.90;;;;;;5065403;28;20728;-71
2022/10/22 12:26:25;;;;;;;12.32;6.93;;;19.00;99.90;;;;;;5051966;28;20232;-72
2022/10/22 12:28:56;;;;;;;11.27;7.85;;;18.80;99.90;;;;;;5069624;28;20218;-71
2022/10/22 12:31:22;;;;;;;8.95;6.25;;;18.80;99.90;;;;;;5066110;28;20199;-71
2022/10/22 12:33:48;;;;;;;9.00;6.18;;;18.70;99.90;;;;;;5069584;28;20229;-71
2022/10/22 12:36:17;;;;;;;8.25;5.65;;;18.70;99.90;;;;;;5066956;28;20918;-71
2022/10/22 12:38:48;;;;;;;8.60;5.95;;;18.70;99.90;;;;;;5066207;28;20175;-71
2022/10/22 12:41:14;;;;;;;9.20;5.32;;;18.70;99.90;;;;;;5068941;28;20804;-70
2022/10/22 12:43:39;;;;;;;6.38;4.60;;;18.70;99.90;;;;;;5069118;28;20199;-71
2022/10/22 12:46:12;;;;;;;9.95;5.57;;;18.80;99.90;;;;;;5069512;28;20199;-71
2022/10/22 12:48:40;;;;;;;11.05;4.70;;;18.80;99.90;;;;;;5069683;28;20241;-71